createdAt,value
2022-09-02T20:53:39.545Z,16.73
2022-09-02T20:57:15.414Z,16.75
2022-09-02T21:00:14.232Z,16.74
2022-09-02T21:03:12.352Z,16.80
2022-09-02T21:06:03.140Z,16.73
2022-09-02T21:09:19.898Z,16.67
2022-09-02T21:12:43.283Z,16.78
2022-09-02T21:15:55.844Z,16.71
2022-09-02T21:19:13.379Z,16.71
2022-09-02T21:22:14.168Z,16.80
2022-09-02T21:25:08.195Z,16.73
2022-09-02T21:28:43.706Z,16.79
2022-09-02T21:31:48.071Z,16.71
2022-09-02T21:34:57.980Z,16.71
2022-09-02T21:37:53.583Z,16.73
2022-09-02T21:40:43.942Z,16.85
2022-09-02T21:44:02.421Z,16.80
2022-09-02T21:47:10.105Z,16.80
2022-09-02T21:50:10.334Z,16.88
2022-09-02T21:53:00.809Z,16.79
2022-09-02T21:56:12.790Z,16.93
2022-09-02T21:59:03.786Z,16.81
2022-09-02T22:02:16.636Z,16.74
2022-09-02T22:05:22.014Z,16.72
2022-09-02T22:08:24.487Z,16.95
2022-09-02T22:11:32.771Z,16.76
2022-09-02T22:14:23.309Z,16.77
2022-09-02T22:17:34.368Z,16.63
2022-09-02T22:20:31.310Z,16.65
2022-09-02T22:23:26.307Z,16.72
2022-09-02T22:26:39.991Z,16.77
2022-09-02T22:29:37.913Z,16.76
2022-09-02T22:32:32.044Z,16.85
2022-09-02T22:35:34.327Z,16.73
2022-09-02T22:38:36.569Z,16.61
2022-09-02T22:41:24.929Z,16.69
2022-09-02T22:44:49.400Z,16.70
2022-09-02T22:48:08.935Z,16.67
2022-09-02T22:51:22.949Z,16.42
2022-09-02T22:54:10.539Z,16.69
2022-09-02T22:57:11.277Z,16.75
2022-09-02T23:00:04.755Z,16.59
2022-09-02T23:03:21.208Z,16.75
2022-09-02T23:06:39.302Z,16.77
2022-09-02T23:09:27.057Z,16.36
2022-09-02T23:12:41.517Z,16.65
2022-09-02T23:15:48.177Z,16.59
2022-09-02T23:19:04.241Z,16.69
2022-09-02T23:22:04.034Z,16.54
2022-09-02T23:25:03.442Z,16.59
2022-09-02T23:28:04.913Z,16.63
2022-09-02T23:31:01.325Z,16.46
2022-09-02T23:34:25.079Z,16.49
2022-09-02T23:37:40.011Z,16.38
2022-09-02T23:40:30.800Z,16.26
2022-09-02T23:43:19.255Z,16.38
2022-09-02T23:46:39.083Z,16.35
2022-09-02T23:49:38.576Z,16.28
2022-09-02T23:52:59.420Z,16.13
2022-09-02T23:56:09.791Z,16.43
2022-09-02T23:59:34.701Z,16.42
